createdAt,value
2018-11-22T00:00:28.288Z,100333.60
2018-11-22T00:01:05.671Z,100341.28
2018-11-22T00:01:43.092Z,100340.02
2018-11-22T00:02:19.941Z,100338.78
2018-11-22T00:03:01.024Z,100343.95
2018-11-22T00:03:37.893Z,100341.34
2018-11-22T00:04:14.935Z,100339.20
2018-11-22T00:04:51.783Z,100341.56
2018-11-22T00:05:28.676Z,100338.55
2018-11-22T00:06:05.627Z,100338.54
2018-11-22T00:06:42.928Z,100338.13
2018-11-22T00:07:19.903Z,100343.34
2018-11-22T00:07:57.726Z,100339.15
2018-11-22T00:08:34.853Z,100346.83
2018-11-22T00:09:12.530Z,100343.41
2018-11-22T00:09:49.734Z,100344.28
2018-11-22T00:10:27.161Z,100343.42
2018-11-22T00:11:04.084Z,100344.28
2018-11-22T00:11:41.450Z,100350.25
2018-11-22T00:12:18.338Z,100341.58
2018-11-22T00:12:55.336Z,100339.45
2018-11-22T00:13:32.570Z,100345.36
2018-11-22T00:14:09.569Z,100345.80
2018-11-22T00:14:46.560Z,100344.20
2018-11-22T00:15:24.106Z,100345.96
2018-11-22T00:16:01.454Z,100340.87
2018-11-22T00:16:38.494Z,100339.69
2018-11-22T00:17:15.616Z,100350.30
2018-11-22T00:17:52.988Z,100348.64
2018-11-22T00:18:29.940Z,100349.92
2018-11-22T00:19:08.485Z,100352.48
2018-11-22T00:19:45.651Z,100353.33
2018-11-22T00:20:22.811Z,100349.87
2018-11-22T00:20:59.664Z,100347.69
2018-11-22T00:21:37.014Z,100352.42
2018-11-22T00:22:13.906Z,100351.14
2018-11-22T00:22:50.794Z,100345.55
2018-11-22T00:23:28.240Z,100357.86
2018-11-22T00:24:05.270Z,100357.92
2018-11-22T00:24:42.145Z,100356.64
2018-11-22T00:25:19.820Z,100357.06
2018-11-22T00:25:56.754Z,100358.87
2018-11-22T00:26:33.727Z,100360.11
2018-11-22T00:27:10.688Z,100360.52
2018-11-22T00:27:47.550Z,100359.63
2018-11-22T00:28:25.113Z,100362.61
2018-11-22T00:29:02.028Z,100367.77
2018-11-22T00:29:39.025Z,100369.92
2018-11-22T00:30:18.376Z,100360.96
2018-11-22T00:30:55.311Z,100361.70
2018-11-22T00:31:32.220Z,100365.17
2018-11-22T00:32:09.267Z,100366.45
2018-11-22T00:32:46.126Z,100366.87
2018-11-22T00:33:23.213Z,100367.73
2018-11-22T00:34:00.065Z,100366.88
2018-11-22T00:34:37.024Z,100362.23
2018-11-22T00:35:15.126Z,100361.38
2018-11-22T00:35:52.343Z,100358.87
2018-11-22T00:36:29.218Z,100370.01
2018-11-22T00:37:06.184Z,100366.13
2018-11-22T00:37:44.080Z,100363.03
2018-11-22T00:38:20.935Z,100366.07
2018-11-22T00:38:57.791Z,100366.08
2018-11-22T00:39:35.234Z,100363.94
2018-11-22T00:40:31.547Z,100366.34
2018-11-22T00:41:08.767Z,100367.18
2018-11-22T00:41:45.671Z,100369.78
2018-11-22T00:42:23.019Z,100366.39
2018-11-22T00:42:59.972Z,100371.93
2018-11-22T00:43:37.186Z,100366.02
2018-11-22T00:44:14.399Z,100366.94
2018-11-22T00:44:51.347Z,100372.09
2018-11-22T00:45:29.314Z,100370.77
2018-11-22T00:46:06.300Z,100365.48
2018-11-22T00:46:43.232Z,100368.47
2018-11-22T00:47:20.202Z,100362.55
2018-11-22T00:47:57.062Z,100364.27
2018-11-22T00:48:34.473Z,100369.43
2018-11-22T00:49:11.429Z,100371.61
2018-11-22T00:49:48.311Z,100374.60
2018-11-22T00:50:25.991Z,100377.54
2018-11-22T00:51:02.855Z,100372.30
2018-11-22T00:51:39.944Z,100375.77
2018-11-22T00:52:17.366Z,100367.55
2018-11-22T00:52:54.657Z,100367.97
2018-11-22T00:53:31.662Z,100365.48
2018-11-22T00:54:08.857Z,100369.31
2018-11-22T00:54:45.718Z,100376.20
2018-11-22T00:55:24.239Z,100367.11
2018-11-22T00:56:01.257Z,100361.15
2018-11-22T00:56:38.497Z,100363.82
2018-11-22T00:57:15.442Z,100368.16
2018-11-22T00:57:52.902Z,100365.95
2018-11-22T00:58:29.764Z,100372.41
2018-11-22T00:59:06.781Z,100375.39
2018-11-22T00:59:43.772Z,100371.98
2018-11-22T01:00:21.969Z,100373.16
2018-11-22T01:00:58.814Z,100381.31
2018-11-22T01:01:36.133Z,100372.78
2018-11-22T01:02:13.391Z,100383.45
2018-11-22T01:02:50.487Z,100379.66
2018-11-22T01:03:27.696Z,100377.15
2018-11-22T01:04:05.027Z,100379.23
2018-11-22T01:04:42.065Z,100382.23
2018-11-22T01:05:20.196Z,100378.43
2018-11-22T01:05:57.127Z,100377.15
2018-11-22T01:06:34.113Z,100380.14
2018-11-22T01:07:11.076Z,100380.57
2018-11-22T01:07:48.129Z,100375.08
2018-11-22T01:08:24.987Z,100380.14
2018-11-22T01:09:02.779Z,100379.30
2018-11-22T01:09:39.689Z,100382.70
2018-11-22T01:10:17.936Z,100380.58
2018-11-22T01:10:54.788Z,100383.17
2018-11-22T01:11:31.681Z,100383.60
2018-11-22T01:12:08.561Z,100375.94
2018-11-22T01:12:46.369Z,100385.31
2018-11-22T01:13:23.197Z,100380.63
2018-11-22T01:14:00.095Z,100374.23
2018-11-22T01:14:36.978Z,100376.73
2018-11-22T01:15:13.926Z,100375.92
2018-11-22T01:15:50.788Z,100375.46
2018-11-22T01:16:27.881Z,100374.17
2018-11-22T01:17:04.862Z,100380.15
2018-11-22T01:17:41.783Z,100378.38
2018-11-22T01:18:18.628Z,100299.84
2018-11-22T01:18:55.491Z,100379.23
2018-11-22T01:19:32.827Z,100375.82
2018-11-22T01:20:14.863Z,100382.61
2018-11-22T01:20:52.223Z,100380.95
2018-11-22T01:21:29.105Z,100377.20
2018-11-22T01:22:06.607Z,100381.09
2018-11-22T01:22:43.682Z,100379.77
2018-11-22T01:23:20.541Z,100383.19
2018-11-22T01:23:57.751Z,100382.80
2018-11-22T01:24:35.081Z,100379.39
2018-11-22T01:25:13.147Z,100384.08
2018-11-22T01:25:50.419Z,100378.12
2018-11-22T01:26:27.630Z,100382.80
2018-11-22T01:27:04.945Z,100384.47
2018-11-22T01:27:42.364Z,100382.70
2018-11-22T01:28:19.236Z,100378.54
2018-11-22T01:28:56.587Z,100384.08
2018-11-22T01:29:33.447Z,100382.28
2018-11-22T01:30:15.148Z,100380.62
2018-11-22T01:30:52.349Z,100380.63
2018-11-22T01:31:29.210Z,100384.93
2018-11-22T01:32:06.130Z,100383.70
2018-11-22T01:32:44.368Z,100377.73
2018-11-22T01:33:21.270Z,100376.84
2018-11-22T01:33:58.229Z,100385.41
2018-11-22T01:34:35.243Z,100380.30
2018-11-22T01:35:12.904Z,100382.46
2018-11-22T01:35:49.769Z,100382.00
2018-11-22T01:36:27.263Z,100382.84
2018-11-22T01:37:04.405Z,100384.12
2018-11-22T01:37:42.079Z,100387.07
2018-11-22T01:38:18.972Z,100387.53
2018-11-22T01:38:55.864Z,100386.26
2018-11-22T01:39:32.752Z,100391.37
2018-11-22T01:40:12.160Z,100387.97
2018-11-22T01:40:49.061Z,100390.56
2018-11-22T01:41:25.915Z,100384.59
2018-11-22T01:42:02.821Z,100383.36
2018-11-22T01:42:40.269Z,100381.62
2018-11-22T01:43:17.178Z,100377.78
2018-11-22T01:43:54.292Z,100381.23
2018-11-22T01:44:31.543Z,100387.58
2018-11-22T01:45:09.697Z,100384.17
2018-11-22T01:45:46.591Z,100385.53
2018-11-22T01:46:23.447Z,100386.38
2018-11-22T01:47:00.319Z,100375.34
2018-11-22T01:47:37.327Z,100380.45
2018-11-22T01:48:14.343Z,100381.27
2018-11-22T01:48:51.281Z,100379.09
2018-11-22T01:49:28.164Z,100379.99
2018-11-22T01:50:05.208Z,100381.66
2018-11-22T01:50:42.184Z,100385.06
2018-11-22T01:51:19.507Z,100392.77
2018-11-22T01:51:56.370Z,100384.75
2018-11-22T01:52:33.238Z,100381.77
2018-11-22T01:53:10.167Z,100383.44
2018-11-22T01:53:47.373Z,100385.53
2018-11-22T01:54:24.258Z,100392.34
2018-11-22T01:55:01.126Z,100381.73
2018-11-22T01:55:38.039Z,100383.01
2018-11-22T01:56:15.296Z,100386.81
2018-11-22T01:56:52.487Z,100387.20
2018-11-22T01:57:29.662Z,100388.94
2018-11-22T01:58:06.770Z,100386.80
2018-11-22T01:58:44.005Z,100388.90
2018-11-22T01:59:20.850Z,100384.21
2018-11-22T01:59:57.774Z,100391.45
2018-11-22T02:00:34.679Z,100387.92
2018-11-22T02:01:11.605Z,100386.72
2018-11-22T02:01:48.459Z,100393.47
2018-11-22T02:02:25.432Z,100387.15
2018-11-22T02:03:02.304Z,100386.73
2018-11-22T02:03:39.247Z,100383.78
2018-11-22T02:04:16.241Z,100393.59
2018-11-22T02:04:53.095Z,100385.02
2018-11-22T02:05:29.956Z,100396.06
2018-11-22T02:06:07.368Z,100390.59
2018-11-22T02:06:44.319Z,100390.22
2018-11-22T02:07:21.179Z,100396.19
2018-11-22T02:07:58.013Z,100388.12
2018-11-22T02:08:34.950Z,100393.63
2018-11-22T02:09:12.317Z,100389.37
2018-11-22T02:09:49.181Z,100392.23
2018-11-22T02:10:26.187Z,100382.00
2018-11-22T02:11:03.212Z,100388.86
2018-11-22T02:11:41.778Z,100385.87
2018-11-22T02:12:19.024Z,100389.75
2018-11-22T02:12:55.897Z,100393.59
2018-11-22T02:13:33.612Z,100391.45
2018-11-22T02:14:11.303Z,100391.45
2018-11-22T02:14:48.151Z,100393.97
2018-11-22T02:15:26.677Z,100395.64
2018-11-22T02:16:04.073Z,100396.48
2018-11-22T02:16:42.717Z,100391.84
2018-11-22T02:17:21.056Z,100394.91
2018-11-22T02:17:57.993Z,100395.67
2018-11-22T02:18:34.997Z,100388.91
2018-11-22T02:19:11.912Z,100402.61
2018-11-22T02:19:48.780Z,100394.91
2018-11-22T02:20:26.267Z,100391.92
2018-11-22T02:21:03.139Z,100393.63
2018-11-22T02:21:40.096Z,100389.36
2018-11-22T02:22:16.942Z,100389.70
2018-11-22T02:22:53.978Z,100395.21
2018-11-22T02:23:30.924Z,100394.39
2018-11-22T02:24:08.229Z,100394.83
2018-11-22T02:24:45.447Z,100390.61
2018-11-22T02:25:23.918Z,100390.14
2018-11-22T02:26:00.817Z,100391.03
2018-11-22T02:26:37.769Z,100388.08
2018-11-22T02:27:15.070Z,100393.59
2018-11-22T02:27:51.925Z,100393.66
2018-11-22T02:28:28.885Z,100394.09
2018-11-22T02:29:05.911Z,100393.23
2018-11-22T02:29:43.166Z,100391.56
2018-11-22T02:30:21.942Z,100386.88
2018-11-22T02:30:59.161Z,100392.81
2018-11-22T02:31:36.163Z,100389.83
2018-11-22T02:32:13.058Z,100388.97
2018-11-22T02:32:51.509Z,100394.09
2018-11-22T02:33:28.373Z,100390.67
2018-11-22T02:34:05.445Z,100385.99
2018-11-22T02:34:42.393Z,100385.63
2018-11-22T02:35:19.516Z,100390.28
2018-11-22T02:35:56.505Z,100386.91
2018-11-22T02:36:33.486Z,100389.89
2018-11-22T02:37:12.241Z,100386.52
2018-11-22T02:37:47.964Z,100389.89
2018-11-22T02:38:25.223Z,100391.20
2018-11-22T02:39:02.221Z,100393.72
2018-11-22T02:39:39.320Z,100387.36
2018-11-22T02:40:17.439Z,100392.90
2018-11-22T02:40:54.314Z,100394.57
2018-11-22T02:41:32.356Z,100393.27
2018-11-22T02:42:09.347Z,100394.15
2018-11-22T02:42:46.721Z,100386.02
2018-11-22T02:43:23.746Z,100400.08
2018-11-22T02:44:00.601Z,100394.97
2018-11-22T02:44:37.579Z,100401.30
2018-11-22T02:45:16.139Z,100392.77
2018-11-22T02:45:53.005Z,100398.34
2018-11-22T02:46:30.314Z,100393.27
2018-11-22T02:47:07.269Z,100390.70
2018-11-22T02:47:44.150Z,100395.42
2018-11-22T02:48:21.019Z,100392.45
2018-11-22T02:48:57.873Z,100393.63
2018-11-22T02:49:34.848Z,100389.01
2018-11-22T02:50:16.290Z,100388.58
2018-11-22T02:50:53.141Z,100392.81
2018-11-22T02:51:30.344Z,100389.01
2018-11-22T02:52:07.735Z,100394.58
2018-11-22T02:52:44.835Z,100394.58
2018-11-22T02:53:21.680Z,100396.28
2018-11-22T02:53:58.986Z,100402.24
2018-11-22T02:54:35.953Z,100398.77
2018-11-22T02:55:12.868Z,100396.67
2018-11-22T02:55:50.537Z,100401.75
2018-11-22T02:56:27.418Z,100397.95
2018-11-22T02:57:04.782Z,100400.90
2018-11-22T02:57:42.343Z,100399.63
2018-11-22T02:58:19.187Z,100405.63
2018-11-22T02:58:56.177Z,100400.94
2018-11-22T02:59:33.135Z,100402.21
2018-11-22T03:00:32.508Z,100402.61
2018-11-22T03:01:09.642Z,100405.12
2018-11-22T03:01:46.524Z,100399.63
2018-11-22T03:02:23.490Z,100406.02
2018-11-22T03:03:00.588Z,100399.63
2018-11-22T03:03:37.576Z,100408.53
2018-11-22T03:04:14.478Z,100408.53
2018-11-22T03:04:51.391Z,100407.30
2018-11-22T03:05:28.331Z,100405.98
2018-11-22T03:06:05.497Z,100411.55
2018-11-22T03:06:42.400Z,100406.44
2018-11-22T03:07:19.312Z,100407.26
2018-11-22T03:07:56.266Z,100403.85
2018-11-22T03:08:33.156Z,100399.66
2018-11-22T03:09:12.276Z,100412.01
2018-11-22T03:09:49.169Z,100408.57
2018-11-22T03:10:26.181Z,100405.59
2018-11-22T03:11:03.079Z,100403.88
2018-11-22T03:11:40.189Z,100399.69
2018-11-22T03:12:17.789Z,100402.61
2018-11-22T03:12:55.466Z,100396.25
2018-11-22T03:13:32.391Z,100398.84
2018-11-22T03:14:09.515Z,100392.45
2018-11-22T03:14:46.436Z,100400.94
2018-11-22T03:15:23.462Z,100392.84
2018-11-22T03:16:00.324Z,100401.75
2018-11-22T03:16:37.439Z,100402.57
2018-11-22T03:17:14.558Z,100389.40
2018-11-22T03:17:51.890Z,100401.30
2018-11-22T03:18:28.768Z,100400.02
2018-11-22T03:19:05.938Z,100397.88
2018-11-22T03:19:42.905Z,100397.00
2018-11-22T03:20:20.514Z,100392.77
2018-11-22T03:20:58.170Z,100397.03
2018-11-22T03:21:35.138Z,100396.19
2018-11-22T03:22:12.823Z,100396.18
2018-11-22T03:22:50.074Z,100391.88
2018-11-22T03:23:27.274Z,100398.19
2018-11-22T03:24:04.246Z,100390.99
2018-11-22T03:24:41.234Z,100392.34
2018-11-22T03:25:19.065Z,100388.08
2018-11-22T03:25:55.932Z,100393.13
2018-11-22T03:26:32.883Z,100390.14
2018-11-22T03:27:09.835Z,100387.62
2018-11-22T03:27:49.924Z,100387.58
2018-11-22T03:28:26.782Z,100392.66
2018-11-22T03:29:03.665Z,100394.83
2018-11-22T03:29:40.607Z,100392.27
2018-11-22T03:30:18.758Z,100391.06
2018-11-22T03:30:56.024Z,100391.06
2018-11-22T03:31:33.221Z,100394.02
2018-11-22T03:32:10.300Z,100387.23
2018-11-22T03:32:47.534Z,100388.08
2018-11-22T03:33:24.406Z,100396.14
2018-11-22T03:34:01.610Z,100392.77
2018-11-22T03:34:38.582Z,100390.64
2018-11-22T03:35:19.912Z,100394.09
2018-11-22T03:35:56.787Z,100391.06
2018-11-22T03:36:34.016Z,100391.92
2018-11-22T03:37:11.032Z,100386.41
2018-11-22T03:37:47.881Z,100394.91
2018-11-22T03:38:25.115Z,100390.61
2018-11-22T03:39:02.026Z,100384.28
2018-11-22T03:39:39.006Z,100388.55
2018-11-22T03:40:17.262Z,100388.12
2018-11-22T03:40:54.386Z,100392.41
2018-11-22T03:41:31.258Z,100383.44
2018-11-22T03:42:08.698Z,100391.50
2018-11-22T03:42:45.994Z,100386.88
2018-11-22T03:43:23.483Z,100380.95
2018-11-22T03:44:00.686Z,100378.78
2018-11-22T03:44:37.688Z,100386.05
2018-11-22T03:45:15.340Z,100379.24
2018-11-22T03:45:52.463Z,100383.05
2018-11-22T03:46:29.362Z,100384.75
2018-11-22T03:47:07.065Z,100386.45
2018-11-22T03:47:44.347Z,100389.89
2018-11-22T03:48:21.217Z,100384.35
2018-11-22T03:48:58.171Z,100377.11
2018-11-22T03:49:35.392Z,100386.41
2018-11-22T03:50:17.182Z,100380.03
2018-11-22T03:50:54.085Z,100384.67
2018-11-22T03:51:31.221Z,100387.69
2018-11-22T03:52:08.791Z,100383.86
2018-11-22T03:52:46.781Z,100383.47
2018-11-22T03:53:23.637Z,100382.58
2018-11-22T03:54:00.494Z,100381.73
2018-11-22T03:54:37.440Z,100383.86
2018-11-22T03:55:15.455Z,100383.86
2018-11-22T03:55:52.357Z,100387.30
2018-11-22T03:56:29.233Z,100383.50
2018-11-22T03:57:06.114Z,100380.98
2018-11-22T03:57:43.434Z,100390.34
2018-11-22T03:58:20.597Z,100385.66
2018-11-22T03:58:57.442Z,100386.52
2018-11-22T03:59:34.473Z,100383.44
2018-11-22T04:00:17.177Z,100386.45
2018-11-22T04:00:54.167Z,100380.06
2018-11-22T04:01:31.102Z,100388.12
2018-11-22T04:02:08.486Z,100389.83
2018-11-22T04:02:46.243Z,100385.53
2018-11-22T04:03:23.108Z,100386.81
2018-11-22T04:04:00.220Z,100388.94
2018-11-22T04:04:37.169Z,100387.66
2018-11-22T04:05:16.099Z,100390.64
2018-11-22T04:05:53.358Z,100391.50
2018-11-22T04:06:30.275Z,100388.97
2018-11-22T04:07:07.328Z,100392.84
2018-11-22T04:07:44.204Z,100389.89
2018-11-22T04:08:21.094Z,100393.69
2018-11-22T04:08:58.236Z,100392.38
2018-11-22T04:09:35.344Z,100392.38
2018-11-22T04:10:20.470Z,100391.53
2018-11-22T04:10:57.429Z,100394.09
2018-11-22T04:11:34.457Z,100387.27
2018-11-22T04:12:11.365Z,100392.81
2018-11-22T04:12:48.230Z,100389.86
2018-11-22T04:13:25.091Z,100391.14
2018-11-22T04:14:01.963Z,100389.86
2018-11-22T04:14:39.243Z,100390.25
2018-11-22T04:15:16.498Z,100388.90
2018-11-22T04:15:53.403Z,100385.53
2018-11-22T04:16:30.252Z,100390.22
2018-11-22T04:17:07.619Z,100392.38
2018-11-22T04:17:44.819Z,100392.38
2018-11-22T04:18:22.435Z,100386.45
2018-11-22T04:18:59.635Z,100394.12
2018-11-22T04:19:36.956Z,100388.61
2018-11-22T04:20:21.834Z,100390.77
2018-11-22T04:20:58.738Z,100391.20
2018-11-22T04:21:41.616Z,100397.16
2018-11-22T04:22:18.461Z,100389.89
2018-11-22T04:22:55.311Z,100394.15
2018-11-22T04:23:32.184Z,100394.15
2018-11-22T04:24:09.124Z,100386.48
2018-11-22T04:24:46.372Z,100392.02
2018-11-22T04:25:23.670Z,100399.26
2018-11-22T04:26:00.553Z,100392.44
2018-11-22T04:26:37.690Z,100389.06
2018-11-22T04:27:14.564Z,100390.34
2018-11-22T04:27:51.419Z,100394.94
2018-11-22T04:28:28.561Z,100390.67
2018-11-22T04:29:05.499Z,100391.10
2018-11-22T04:29:42.527Z,100390.70
2018-11-22T04:30:31.105Z,100390.70
2018-11-22T04:31:08.249Z,100387.77
2018-11-22T04:31:45.508Z,100391.10
2018-11-22T04:32:22.608Z,100397.06
2018-11-22T04:32:59.595Z,100388.55
2018-11-22T04:33:37.413Z,100391.92
2018-11-22T04:34:14.343Z,100384.71
2018-11-22T04:34:51.568Z,100382.16
2018-11-22T04:35:28.824Z,100397.95
2018-11-22T04:36:05.747Z,100389.86
2018-11-22T04:36:43.022Z,100386.48
2018-11-22T04:37:19.897Z,100395.82
2018-11-22T04:37:56.806Z,100394.15
2018-11-22T04:38:33.716Z,100400.99
2018-11-22T04:39:12.114Z,100394.15
2018-11-22T04:39:49.058Z,100397.98
2018-11-22T04:40:27.186Z,100390.70
2018-11-22T04:41:04.123Z,100395.82
2018-11-22T04:41:41.449Z,100390.28
2018-11-22T04:42:18.343Z,100390.70
2018-11-22T04:42:55.774Z,100389.89
2018-11-22T04:43:32.666Z,100397.13
2018-11-22T04:44:09.594Z,100389.92
2018-11-22T04:44:46.562Z,100394.15
2018-11-22T04:45:23.579Z,100391.20
2018-11-22T04:46:00.890Z,100391.62
2018-11-22T04:46:37.874Z,100390.28
2018-11-22T04:47:15.406Z,100387.30
2018-11-22T04:47:54.067Z,100392.38
2018-11-22T04:48:31.204Z,100388.12
2018-11-22T04:49:08.130Z,100390.17
2018-11-22T04:49:45.023Z,100389.32
2018-11-22T04:50:23.176Z,100388.90
2018-11-22T04:51:00.102Z,100383.79
2018-11-22T04:51:37.228Z,100390.99
2018-11-22T04:52:14.488Z,100393.55
2018-11-22T04:52:51.362Z,100397.38
2018-11-22T04:53:28.294Z,100390.18
2018-11-22T04:54:05.277Z,100389.33
2018-11-22T04:54:42.203Z,100395.33
2018-11-22T04:55:19.432Z,100394.47
2018-11-22T04:55:56.994Z,100382.93
2018-11-22T04:56:33.921Z,100389.33
2018-11-22T04:57:10.990Z,100393.13
2018-11-22T04:57:47.833Z,100388.05
2018-11-22T04:58:25.436Z,100389.33
2018-11-22T04:59:02.742Z,100393.20
2018-11-22T04:59:39.670Z,100394.87
2018-11-22T05:00:18.460Z,100391.95
2018-11-22T05:00:55.344Z,100392.38
2018-11-22T05:01:32.296Z,100392.81
2018-11-22T05:02:09.349Z,100399.20
2018-11-22T05:02:46.648Z,100390.67
2018-11-22T05:03:23.858Z,100397.49
2018-11-22T05:04:00.805Z,100400.44
2018-11-22T05:04:38.153Z,100398.34
2018-11-22T05:05:19.572Z,100401.30
2018-11-22T05:05:56.809Z,100403.00
2018-11-22T05:06:33.692Z,100399.16
2018-11-22T05:07:13.133Z,100396.53
2018-11-22T05:07:48.194Z,100392.66
2018-11-22T05:08:25.149Z,100402.06
2018-11-22T05:09:02.397Z,100402.92
2018-11-22T05:09:39.380Z,100407.58
2018-11-22T05:10:24.109Z,100402.45
2018-11-22T05:11:01.292Z,100399.86
2018-11-22T05:11:38.871Z,100407.95
2018-11-22T05:12:16.062Z,100403.31
2018-11-22T05:12:53.460Z,100405.44
2018-11-22T05:13:30.343Z,100403.27
2018-11-22T05:14:07.495Z,100399.47
2018-11-22T05:14:44.427Z,100407.53
2018-11-22T05:15:22.782Z,100405.01
2018-11-22T05:15:59.685Z,100404.16
2018-11-22T05:16:37.476Z,100405.73
2018-11-22T05:17:14.743Z,100405.69
2018-11-22T05:17:51.623Z,100406.16
2018-11-22T05:18:28.522Z,100403.65
2018-11-22T05:19:05.436Z,100400.70
2018-11-22T05:19:42.411Z,100399.84
2018-11-22T05:20:20.813Z,100404.94
2018-11-22T05:20:57.691Z,100398.15
2018-11-22T05:21:34.627Z,100398.16
2018-11-22T05:22:12.104Z,100398.61
2018-11-22T05:22:49.863Z,100405.44
2018-11-22T05:23:26.711Z,100407.14
2018-11-22T05:24:03.690Z,100405.48
2018-11-22T05:24:40.850Z,100401.64
2018-11-22T05:25:17.729Z,100403.35
2018-11-22T05:25:54.940Z,100402.14
2018-11-22T05:26:32.290Z,100408.53
2018-11-22T05:27:09.180Z,100410.70
2018-11-22T05:27:46.192Z,100404.73
2018-11-22T05:28:23.306Z,100405.63
2018-11-22T05:29:00.425Z,100406.89
2018-11-22T05:29:37.360Z,100407.72
2018-11-22T05:30:22.709Z,100407.26
2018-11-22T05:30:59.655Z,100403.85
2018-11-22T05:31:36.636Z,100401.68
2018-11-22T05:32:13.844Z,100406.37
2018-11-22T05:32:50.700Z,100405.09
2018-11-22T05:33:27.847Z,100401.30
2018-11-22T05:34:04.735Z,100409.39
2018-11-22T05:34:41.812Z,100406.41
2018-11-22T05:35:19.116Z,100414.93
2018-11-22T05:35:55.950Z,100408.97
2018-11-22T05:36:32.872Z,100406.02
2018-11-22T05:37:09.872Z,100411.98
2018-11-22T05:37:46.713Z,100400.94
2018-11-22T05:38:23.626Z,100408.60
2018-11-22T05:39:00.497Z,100406.92
2018-11-22T05:39:37.494Z,100409.00
2018-11-22T05:40:19.257Z,100402.58
2018-11-22T05:40:56.106Z,100414.50
2018-11-22T05:41:33.798Z,100405.09
2018-11-22T05:42:10.803Z,100403.42
2018-11-22T05:42:47.705Z,100411.55
2018-11-22T05:43:24.620Z,100398.38
2018-11-22T05:44:02.144Z,100406.92
2018-11-22T05:44:39.375Z,100399.26
2018-11-22T05:45:23.935Z,100394.18
2018-11-22T05:46:00.799Z,100403.55
2018-11-22T05:46:39.256Z,100397.98
2018-11-22T05:47:16.488Z,100406.08
2018-11-22T05:47:53.358Z,100402.70
2018-11-22T05:48:30.594Z,100403.13
2018-11-22T05:49:08.899Z,100405.64
2018-11-22T05:49:45.749Z,100411.61
2018-11-22T05:50:24.207Z,100408.60
2018-11-22T05:51:01.104Z,100417.55
2018-11-22T05:51:38.066Z,100403.95
2018-11-22T05:52:15.139Z,100405.64
2018-11-22T05:52:53.166Z,100402.66
2018-11-22T05:53:30.026Z,100408.60
2018-11-22T05:54:07.043Z,100411.58
2018-11-22T05:54:44.357Z,100412.44
2018-11-22T05:55:21.239Z,100413.29
2018-11-22T05:55:58.066Z,100409.84
2018-11-22T05:56:35.374Z,100414.96
2018-11-22T05:57:12.736Z,100411.13
2018-11-22T05:57:49.612Z,100417.06
2018-11-22T05:58:27.247Z,100416.66
2018-11-22T05:59:04.643Z,100416.66
2018-11-22T05:59:41.724Z,100412.83
2018-11-22T06:00:24.124Z,100420.08
2018-11-22T06:01:01.067Z,100419.19
2018-11-22T06:01:38.212Z,100417.48
2018-11-22T06:02:15.183Z,100419.04
2018-11-22T06:02:52.186Z,100419.04
2018-11-22T06:03:29.832Z,100411.41
2018-11-22T06:04:06.890Z,100422.48
2018-11-22T06:04:43.879Z,100414.39
2018-11-22T06:05:22.449Z,100419.47
2018-11-22T06:05:59.293Z,100414.85
2018-11-22T06:06:36.242Z,100416.14
2018-11-22T06:07:13.136Z,100424.66
2018-11-22T06:07:50.067Z,100417.41
2018-11-22T06:08:26.949Z,100416.48
2018-11-22T06:09:04.206Z,100423.73
2018-11-22T06:09:41.944Z,100416.13
2018-11-22T06:10:20.773Z,100421.67
2018-11-22T06:10:57.641Z,100416.56
2018-11-22T06:11:34.591Z,100425.55
2018-11-22T06:12:11.535Z,100425.58
2018-11-22T06:12:48.813Z,100427.31
2018-11-22T06:13:25.729Z,100420.08
2018-11-22T06:14:02.772Z,100426.07
2018-11-22T06:14:39.692Z,100417.12
2018-11-22T06:15:16.825Z,100418.40
2018-11-22T06:15:53.672Z,100415.41
2018-11-22T06:16:30.583Z,100412.04
2018-11-22T06:17:08.623Z,100418.83
2018-11-22T06:17:46.161Z,100416.27
2018-11-22T06:18:23.744Z,100416.69
2018-11-22T06:19:00.620Z,100420.95
2018-11-22T06:19:37.547Z,100420.92
2018-11-22T06:20:22.115Z,100417.09
2018-11-22T06:20:58.974Z,100423.45
2018-11-22T06:21:36.026Z,100425.16
2018-11-22T06:22:13.226Z,100423.06
2018-11-22T06:22:51.430Z,100424.34
2018-11-22T06:23:28.372Z,100422.63
2018-11-22T06:24:05.442Z,100417.94
2018-11-22T06:24:42.331Z,100422.20
2018-11-22T06:25:19.755Z,100422.20
2018-11-22T06:25:56.739Z,100419.65
2018-11-22T06:26:33.706Z,100421.35
2018-11-22T06:27:10.878Z,100421.81
2018-11-22T06:27:48.037Z,100420.95
2018-11-22T06:28:25.288Z,100421.38
2018-11-22T06:29:02.421Z,100420.55
2018-11-22T06:29:39.318Z,100425.66
2018-11-22T06:30:21.026Z,100421.83
2018-11-22T06:30:57.883Z,100426.09
2018-11-22T06:31:34.876Z,100425.64
2018-11-22T06:32:11.899Z,100425.61
2018-11-22T06:32:50.018Z,100423.91
2018-11-22T06:33:26.930Z,100428.95
2018-11-22T06:34:04.287Z,100422.95
2018-11-22T06:34:41.310Z,100422.09
2018-11-22T06:35:18.219Z,100422.52
2018-11-22T06:35:55.262Z,100423.34
2018-11-22T06:36:32.200Z,100423.37
2018-11-22T06:37:09.337Z,100424.19
2018-11-22T06:37:46.201Z,100428.45
2018-11-22T06:38:23.065Z,100424.20
2018-11-22T06:39:00.021Z,100427.60
2018-11-22T06:39:36.956Z,100425.00
2018-11-22T06:40:15.009Z,100427.98
2018-11-22T06:41:27.153Z,100426.71
2018-11-22T06:42:04.417Z,100425.01
2018-11-22T06:42:42.030Z,100424.58
2018-11-22T06:43:18.910Z,100424.58
2018-11-22T06:43:56.192Z,100427.14
2018-11-22T06:44:33.241Z,100425.86
2018-11-22T06:45:13.500Z,100433.96
2018-11-22T06:45:50.426Z,100428.45
2018-11-22T06:46:27.745Z,100425.90
2018-11-22T06:47:04.689Z,100429.31
2018-11-22T06:47:41.664Z,100433.11
2018-11-22T06:48:18.858Z,100429.27
2018-11-22T06:48:56.151Z,100433.11
2018-11-22T06:49:33.082Z,100422.88
2018-11-22T06:50:11.128Z,100427.09
2018-11-22T06:50:48.412Z,100435.62
2018-11-22T06:51:25.603Z,100430.98
2018-11-22T06:52:02.484Z,100433.11
2018-11-22T06:52:39.817Z,100433.14
2018-11-22T06:53:16.828Z,100432.30
2018-11-22T06:53:54.057Z,100434.00
2018-11-22T06:54:31.390Z,100433.56
2018-11-22T06:55:10.493Z,100438.65
2018-11-22T06:55:51.506Z,100434.39
2018-11-22T06:56:24.316Z,100438.65
2018-11-22T06:57:01.166Z,100435.27
2018-11-22T06:57:38.539Z,100433.61
2018-11-22T06:58:15.442Z,100438.30
2018-11-22T06:58:52.394Z,100436.98
2018-11-22T06:59:29.308Z,100436.09
2018-11-22T07:00:06.545Z,100425.86
2018-11-22T07:00:43.565Z,100429.70
2018-11-22T07:01:20.595Z,100423.34
2018-11-22T07:01:57.512Z,100426.28
2018-11-22T07:02:34.412Z,100429.23
2018-11-22T07:03:11.666Z,100425.81
2018-11-22T07:03:48.692Z,100430.51
2018-11-22T07:04:25.907Z,100433.06
2018-11-22T07:05:02.785Z,100424.07
2018-11-22T07:05:40.226Z,100423.64
2018-11-22T07:06:17.180Z,100429.61
2018-11-22T07:06:54.115Z,100424.53
2018-11-22T07:07:30.990Z,100432.64